Airfield :
LOGIN :

Register | Disclaimer

   EN    FR    IT 

 










Legend :    VFR   Marginal VFR   IFR   Intensive IFR   Very Intensive IFR
Visi :
Ceiling :
>= 8 km
>= 3000ft
5 to 8 km
1000 to 3000 ft
1500m to 5 km
500 to 1000 ft
800 to 1500m
200 to 500 ft
< 800m
< 200 ft
Symbols :   Thunderstorms  Fog  Heavy snow  Heavy precipitations  Wind > 20 kt
SIGMETs :     Misc.  Thunderstorms  Icing  Turbulence  Mountain Waves  Volcanic Ashes







- Airport Elevation : 183 ft
- IATA code : HAJ


EDDV - Hanover/Langenhagen Int.

CURRENT METAR :
  • 260250Z 31002KT 1200 0450S R27R/P2000N R27L/0900VP2000U BCFG BKN004 02/01 Q1026

EXPIRED METARs :
  • 260220Z 27002KT 0350 0150S R27R/0700VP2000U R27L/1900N FG BKN006 02/01 Q1025
  • 260150Z 29003KT 0550 0100S R09L/0450V0800D R27L/P2000N FG SCT006 SCT250 01/01 Q1026
  • 260120Z VRB01KT 0750 0150NW R27R/P2000N R27L/P2000N BCFG FEW006 SCT250 03/03 Q1026

TAF TAF EDDV
Valid from the 26 at 00:00 until the 27 at 00:00 UTC


252300Z 2600/2624 06004KT 9000 NSC
BECMG 2600/2603 BKN010
TEMPO 2600/2607 3500 BR BKN007
PROB30
TEMPO 2600/2607 0600 FG OVC001
BECMG 2607/2610 FEW020
No reported NOTAMs for that airfield.



MET'MAP, your aeronautical weather chart ! - Copyright ORBIFLY December 2007 - Disclaimer

ORBIFLY MET'MAP TEAM :

Programming & Development : Alexandra Zaïnal
Concept & Development : Baudouin d'Aumeries
Co-Development & Prog : Marc-Olivier Méhu
Technical & hardware support : Manuel Goepfert

Contact : metmap@orbifly.com




SOURCES & CREDITS :

   NOAA